sensor_id;sensor_type;location;lat;lon;timestamp;pressure;altitude;pressure_sealevel;temperature;humidity
79703;BME280;69172;52.352;5.006;2023-10-09T00:00:54;102030.09;;;14.25;100.00
79703;BME280;69172;52.352;5.006;2023-10-09T00:03:44;102032.03;;;14.29;100.00
79703;BME280;69172;52.352;5.006;2023-10-09T00:06:10;102032.56;;;14.37;100.00
79703;BME280;69172;52.352;5.006;2023-10-09T00:08:38;102031.84;;;14.40;100.00
79703;BME280;69172;52.352;5.006;2023-10-09T00:11:04;102032.56;;;14.37;100.00
79703;BME280;69172;52.352;5.006;2023-10-09T00:13:45;102029.31;;;14.41;100.00
79703;BME280;69172;52.352;5.006;2023-10-09T00:16:37;102033.19;;;14.48;100.00
79703;BME280;69172;52.352;5.006;2023-10-09T00:19:08;102027.38;;;14.52;100.00
79703;BME280;69172;52.352;5.006;2023-10-09T00:21:48;102031.75;;;14.53;100.00
79703;BME280;69172;52.352;5.006;2023-10-09T00:24:15;102028.63;;;14.58;100.00
79703;BME280;69172;52.352;5.006;2023-10-09T00:26:51;102020.13;;;14.61;100.00
79703;BME280;69172;52.352;5.006;2023-10-09T00:29:19;102017.81;;;14.65;100.00
79703;BME280;69172;52.352;5.006;2023-10-09T00:31:52;102013.78;;;14.70;100.00
79703;BME280;69172;52.352;5.006;2023-10-09T00:34:29;102015.69;;;14.73;100.00
79703;BME280;69172;52.352;5.006;2023-10-09T00:36:54;102016.13;;;14.80;100.00
79703;BME280;69172;52.352;5.006;2023-10-09T00:39:22;102002.44;;;14.83;100.00
79703;BME280;69172;52.352;5.006;2023-10-09T00:42:09;101996.72;;;14.88;100.00
79703;BME280;69172;52.352;5.006;2023-10-09T00:44:38;101996.00;;;14.91;100.00
79703;BME280;69172;52.352;5.006;2023-10-09T00:47:09;101991.19;;;14.97;100.00
79703;BME280;69172;52.352;5.006;2023-10-09T00:49:48;101985.16;;;14.98;100.00
79703;BME280;69172;52.352;5.006;2023-10-09T00:52:16;101988.91;;;15.03;100.00
79703;BME280;69172;52.352;5.006;2023-10-09T00:54:53;101988.28;;;15.07;100.00
79703;BME280;69172;52.352;5.006;2023-10-09T00:57:19;101986.75;;;15.11;100.00
79703;BME280;69172;52.352;5.006;2023-10-09T00:59:53;101987.81;;;15.14;100.00
79703;BME280;69172;52.352;5.006;2023-10-09T01:02:26;101987.97;;;15.17;100.00
79703;BME280;69172;52.352;5.006;2023-10-09T01:05:02;101977.72;;;15.19;100.00
79703;BME280;69172;52.352;5.006;2023-10-09T01:07:44;101977.16;;;15.24;100.00
79703;BME280;69172;52.352;5.006;2023-10-09T01:10:10;101965.88;;;15.24;100.00
79703;BME280;69172;52.352;5.006;2023-10-09T01:12:36;101974.69;;;15.27;100.00
79703;BME280;69172;52.352;5.006;2023-10-09T01:15:08;101970.53;;;15.29;100.00
79703;BME280;69172;52.352;5.006;2023-10-09T01:17:41;101967.28;;;15.33;100.00
79703;BME280;69172;52.352;5.006;2023-10-09T01:20:11;101963.09;;;15.35;100.00
79703;BME280;69172;52.352;5.006;2023-10-09T01:22:42;101952.84;;;15.38;100.00
79703;BME280;69172;52.352;5.006;2023-10-09T01:25:09;101947.03;;;15.42;100.00
79703;BME280;69172;52.352;5.006;2023-10-09T01:27:35;101951.59;;;15.46;100.00
79703;BME280;69172;52.352;5.006;2023-10-09T01:30:06;101956.88;;;15.48;100.00
79703;BME280;69172;52.352;5.006;2023-10-09T01:32:32;101945.78;;;15.51;100.00
79703;BME280;69172;52.352;5.006;2023-10-09T01:35:01;101942.38;;;15.52;100.00
79703;BME280;69172;52.352;5.006;2023-10-09T01:37:26;101944.97;;;15.52;100.00
79703;BME280;69172;52.352;5.006;2023-10-09T01:39:56;101940.66;;;15.52;100.00
79703;BME280;69172;52.352;5.006;2023-10-09T01:42:41;101935.56;;;15.54;100.00
79703;BME280;69172;52.352;5.006;2023-10-09T01:45:13;101923.75;;;15.59;100.00
79703;BME280;69172;52.352;5.006;2023-10-09T01:47:41;101922.84;;;15.58;100.00
79703;BME280;69172;52.352;5.006;2023-10-09T01:50:12;101927.22;;;15.59;100.00
79703;BME280;69172;52.352;5.006;2023-10-09T01:52:45;101919.44;;;15.59;100.00
79703;BME280;69172;52.352;5.006;2023-10-09T01:55:11;101924.06;;;15.65;100.00
79703;BME280;69172;52.352;5.006;2023-10-09T01:57:59;101919.63;;;15.62;100.00
79703;BME280;69172;52.352;5.006;2023-10-09T02:00:43;101930.06;;;15.64;100.00
79703;BME280;69172;52.352;5.006;2023-10-09T02:03:16;101926.56;;;15.63;100.00
79703;BME280;69172;52.352;5.006;2023-10-09T02:05:44;101919.84;;;15.67;100.00
79703;BME280;69172;52.352;5.006;2023-10-09T02:08:09;101919.09;;;15.69;100.00
79703;BME280;69172;52.352;5.006;2023-10-09T02:10:38;101917.56;;;15.73;100.00
79703;BME280;69172;52.352;5.006;2023-10-09T02:13:06;101918.53;;;15.75;100.00
79703;BME280;69172;52.352;5.006;2023-10-09T02:15:34;101917.97;;;15.80;100.00
79703;BME280;69172;52.352;5.006;2023-10-09T02:18:28;101912.94;;;15.83;100.00
79703;BME280;69172;52.352;5.006;2023-10-09T02:23:33;101919.47;;;15.93;100.00
79703;BME280;69172;52.352;5.006;2023-10-09T02:26:12;101904.75;;;15.92;100.00
79703;BME280;69172;52.352;5.006;2023-10-09T02:28:53;101890.44;;;16.00;100.00
79703;BME280;69172;52.352;5.006;2023-10-09T02:31:30;101898.59;;;16.07;100.00
79703;BME280;69172;52.352;5.006;2023-10-09T02:34:07;101898.81;;;16.12;100.00
79703;BME280;69172;52.352;5.006;2023-10-09T02:36:36;101885.94;;;16.14;100.00
79703;BME280;69172;52.352;5.006;2023-10-09T02:39:28;101883.66;;;16.20;100.00
79703;BME280;69172;52.352;5.006;2023-10-09T02:41:56;101883.66;;;16.20;100.00
79703;BME280;69172;52.352;5.006;2023-10-09T02:44:44;101880.44;;;16.25;100.00
79703;BME280;69172;52.352;5.006;2023-10-09T02:47:18;101860.88;;;16.32;100.00
79703;BME280;69172;52.352;5.006;2023-10-09T02:49:51;101865.44;;;16.36;100.00
79703;BME280;69172;52.352;5.006;2023-10-09T02:52:18;101868.06;;;16.37;100.00
79703;BME280;69172;52.352;5.006;2023-10-09T02:54:45;101866.53;;;16.41;100.00
79703;BME280;69172;52.352;5.006;2023-10-09T02:57:12;101875.44;;;16.46;100.00
79703;BME280;69172;52.352;5.006;2023-10-09T02:59:49;101878.97;;;16.48;100.00
79703;BME280;69172;52.352;5.006;2023-10-09T03:02:18;101889.47;;;16.49;100.00
79703;BME280;69172;52.352;5.006;2023-10-09T03:04:44;101886.03;;;16.50;100.00
79703;BME280;69172;52.352;5.006;2023-10-09T03:07:09;101880.94;;;16.52;100.00
79703;BME280;69172;52.352;5.006;2023-10-09T03:09:35;101863.56;;;16.51;100.00
79703;BME280;69172;52.352;5.006;2023-10-09T03:12:02;101861.84;;;16.51;100.00
79703;BME280;69172;52.352;5.006;2023-10-09T03:14:29;101864.34;;;16.50;100.00
79703;BME280;69172;52.352;5.006;2023-10-09T03:16:56;101867.78;;;16.49;100.00
79703;BME280;69172;52.352;5.006;2023-10-09T03:19:24;101884.38;;;16.52;100.00
79703;BME280;69172;52.352;5.006;2023-10-09T03:21:50;101885.31;;;16.53;100.00
79703;BME280;69172;52.352;5.006;2023-10-09T03:24:15;101897.16;;;16.48;100.00
79703;BME280;69172;52.352;5.006;2023-10-09T03:26:41;101904.53;;;16.56;100.00
79703;BME280;69172;52.352;5.006;2023-10-09T03:29:10;101912.19;;;16.53;100.00
79703;BME280;69172;52.352;5.006;2023-10-09T03:31:38;101914.88;;;16.55;100.00
79703;BME280;69172;52.352;5.006;2023-10-09T03:34:05;101911.16;;;16.67;100.00
79703;BME280;69172;52.352;5.006;2023-10-09T03:36:30;101906.41;;;16.77;100.00
79703;BME280;69172;52.352;5.006;2023-10-09T03:38:57;101900.59;;;16.82;100.00
79703;BME280;69172;52.352;5.006;2023-10-09T03:41:24;101898.28;;;16.88;100.00
79703;BME280;69172;52.352;5.006;2023-10-09T03:43:52;101908.97;;;16.94;100.00
79703;BME280;69172;52.352;5.006;2023-10-09T03:46:19;101904.34;;;17.06;100.00
79703;BME280;69172;52.352;5.006;2023-10-09T03:48:58;101908.56;;;17.04;100.00
79703;BME280;69172;52.352;5.006;2023-10-09T03:51:29;101904.19;;;17.03;100.00
79703;BME280;69172;52.352;5.006;2023-10-09T03:53:54;101900.84;;;17.06;100.00
79703;BME280;69172;52.352;5.006;2023-10-09T03:56:20;101899.19;;;17.08;100.00
79703;BME280;69172;52.352;5.006;2023-10-09T03:58:49;101894.91;;;17.08;100.00
79703;BME280;69172;52.352;5.006;2023-10-09T04:01:17;101887.44;;;17.16;100.00
79703;BME280;69172;52.352;5.006;2023-10-09T04:03:49;101896.94;;;17.15;100.00
79703;BME280;69172;52.352;5.006;2023-10-09T04:06:20;101887.66;;;17.20;100.00
79703;BME280;69172;52.352;5.006;2023-10-09T04:08:47;101879.78;;;17.19;100.00
79703;BME280;69172;52.352;5.006;2023-10-09T04:11:15;101880.81;;;17.22;100.00
79703;BME280;69172;52.352;5.006;2023-10-09T04:13:47;101884.44;;;17.26;100.00
79703;BME280;69172;52.352;5.006;2023-10-09T04:16:14;101880.13;;;17.26;100.00
79703;BME280;69172;52.352;5.006;2023-10-09T04:18:58;101872.28;;;17.25;100.00
79703;BME280;69172;52.352;5.006;2023-10-09T04:21:25;101864.66;;;17.30;100.00
79703;BME280;69172;52.352;5.006;2023-10-09T04:24:04;101860.69;;;17.38;100.00
79703;BME280;69172;52.352;5.006;2023-10-09T04:26:42;101862.88;;;17.28;100.00
79703;BME280;69172;52.352;5.006;2023-10-09T04:29:11;101873.16;;;17.25;100.00
79703;BME280;69172;52.352;5.006;2023-10-09T04:31:47;101872.94;;;17.21;100.00
79703;BME280;69172;52.352;5.006;2023-10-09T04:34:19;101869.25;;;17.16;100.00
79703;BME280;69172;52.352;5.006;2023-10-09T04:36:51;101869.25;;;17.16;100.00
79703;BME280;69172;52.352;5.006;2023-10-09T04:39:28;101869.09;;;17.13;100.00
79703;BME280;69172;52.352;5.006;2023-10-09T04:41:54;101875.06;;;17.10;100.00
79703;BME280;69172;52.352;5.006;2023-10-09T04:44:41;101881.91;;;17.08;100.00
79703;BME280;69172;52.352;5.006;2023-10-09T04:47:26;101899.34;;;17.11;100.00
79703;BME280;69172;52.352;5.006;2023-10-09T04:50:07;101902.00;;;17.12;100.00
79703;BME280;69172;52.352;5.006;2023-10-09T04:53:02;101908.19;;;17.14;100.00
79703;BME280;69172;52.352;5.006;2023-10-09T04:55:43;101913.59;;;17.19;100.00
79703;BME280;69172;52.352;5.006;2023-10-09T04:58:22;101911.28;;;17.25;100.00
79703;BME280;69172;52.352;5.006;2023-10-09T05:00:52;101918.31;;;17.27;100.00
79703;BME280;69172;52.352;5.006;2023-10-09T05:03:28;101913.25;;;17.31;100.00
79703;BME280;69172;52.352;5.006;2023-10-09T05:05:55;101912.44;;;17.32;100.00
79703;BME280;69172;52.352;5.006;2023-10-09T05:08:32;101928.16;;;17.35;100.00
79703;BME280;69172;52.352;5.006;2023-10-09T05:11:11;101915.31;;;17.38;100.00
79703;BME280;69172;52.352;5.006;2023-10-09T05:14:04;101932.72;;;17.39;100.00
79703;BME280;69172;52.352;5.006;2023-10-09T05:16:39;101937.16;;;17.41;100.00
79703;BME280;69172;52.352;5.006;2023-10-09T05:19:22;101952.91;;;17.44;100.00
79703;BME280;69172;52.352;5.006;2023-10-09T05:22:06;101942.69;;;17.49;100.00
79703;BME280;69172;52.352;5.006;2023-10-09T05:24:42;101941.88;;;17.50;100.00
79703;BME280;69172;52.352;5.006;2023-10-09T05:27:10;101927.78;;;17.45;100.00
79703;BME280;69172;52.352;5.006;2023-10-09T05:29:50;101927.78;;;17.45;100.00
79703;BME280;69172;52.352;5.006;2023-10-09T05:32:25;101927.09;;;17.49;100.00
79703;BME280;69172;52.352;5.006;2023-10-09T05:34:55;101927.31;;;17.53;100.00
79703;BME280;69172;52.352;5.006;2023-10-09T05:37:31;101929.75;;;17.50;100.00
79703;BME280;69172;52.352;5.006;2023-10-09T05:40:02;101913.41;;;17.53;100.00
79703;BME280;69172;52.352;5.006;2023-10-09T05:42:31;101914.97;;;17.49;100.00
79703;BME280;69172;52.352;5.006;2023-10-09T05:45:04;101907.09;;;17.48;100.00
79703;BME280;69172;52.352;5.006;2023-10-09T05:47:44;101905.31;;;17.47;100.00
79703;BME280;69172;52.352;5.006;2023-10-09T05:50:27;101901.88;;;17.48;100.00
79703;BME280;69172;52.352;5.006;2023-10-09T05:52:56;101903.63;;;17.47;100.00
79703;BME280;69172;52.352;5.006;2023-10-09T05:55:23;101919.91;;;17.43;100.00
79703;BME280;69172;52.352;5.006;2023-10-09T05:58:07;101939.91;;;17.44;100.00
79703;BME280;69172;52.352;5.006;2023-10-09T06:00:51;101938.53;;;17.52;100.00
79703;BME280;69172;52.352;5.006;2023-10-09T06:03:35;101921.34;;;17.56;100.00
79703;BME280;69172;52.352;5.006;2023-10-09T06:06:13;101895.56;;;17.60;100.00
79703;BME280;69172;52.352;5.006;2023-10-09T06:09:04;101887.41;;;17.53;100.00
79703;BME280;69172;52.352;5.006;2023-10-09T06:11:46;101889.03;;;17.51;100.00
79703;BME280;69172;52.352;5.006;2023-10-09T06:14:18;101878.56;;;17.49;100.00
79703;BME280;69172;52.352;5.006;2023-10-09T06:16:58;101868.06;;;17.48;100.00
79703;BME280;69172;52.352;5.006;2023-10-09T06:19:27;101893.97;;;17.45;100.00
79703;BME280;69172;52.352;5.006;2023-10-09T06:21:59;101923.19;;;17.39;100.00
79703;BME280;69172;52.352;5.006;2023-10-09T06:24:44;101923.91;;;17.37;100.00
79703;BME280;69172;52.352;5.006;2023-10-09T06:27:18;101925.84;;;17.41;100.00
79703;BME280;69172;52.352;5.006;2023-10-09T06:29:58;101932.84;;;17.42;100.00
79703;BME280;69172;52.352;5.006;2023-10-09T06:32:43;101945.63;;;17.37;100.00
79703;BME280;69172;52.352;5.006;2023-10-09T06:35:36;101935.91;;;17.33;100.00
79703;BME280;69172;52.352;5.006;2023-10-09T06:38:03;101938.56;;;17.35;100.00
79703;BME280;69172;52.352;5.006;2023-10-09T06:40:37;101937.69;;;17.34;100.00
79703;BME280;69172;52.352;5.006;2023-10-09T06:43:23;101936.13;;;17.38;100.00
79703;BME280;69172;52.352;5.006;2023-10-09T06:45:57;101936.91;;;17.37;100.00
79703;BME280;69172;52.352;5.006;2023-10-09T06:48:25;101932.47;;;17.34;100.00
79703;BME280;69172;52.352;5.006;2023-10-09T06:51:09;101925.56;;;17.35;100.00
79703;BME280;69172;52.352;5.006;2023-10-09T06:53:54;101923.81;;;17.34;100.00
79703;BME280;69172;52.352;5.006;2023-10-09T06:56:21;101921.13;;;17.32;100.00
79703;BME280;69172;52.352;5.006;2023-10-09T06:58:50;101929.69;;;17.30;100.00
79703;BME280;69172;52.352;5.006;2023-10-09T07:01:21;101921.06;;;17.31;100.00
79703;BME280;69172;52.352;5.006;2023-10-09T07:03:55;101916.75;;;17.31;100.00
79703;BME280;69172;52.352;5.006;2023-10-09T07:06:35;101909.78;;;17.30;100.00
79703;BME280;69172;52.352;5.006;2023-10-09T07:09:02;101916.69;;;17.30;100.00
79703;BME280;69172;52.352;5.006;2023-10-09T07:11:35;101904.47;;;17.28;100.00
79703;BME280;69172;52.352;5.006;2023-10-09T07:14:07;101889.91;;;17.32;100.00
79703;BME280;69172;52.352;5.006;2023-10-09T07:16:33;101887.47;;;17.35;100.00
79703;BME280;69172;52.352;5.006;2023-10-09T07:19:05;101892.00;;;17.39;100.00
79703;BME280;69172;52.352;5.006;2023-10-09T07:21:49;101886.03;;;17.42;100.00
79703;BME280;69172;52.352;5.006;2023-10-09T07:24:20;101895.81;;;17.47;100.00
79703;BME280;69172;52.352;5.006;2023-10-09T07:26:51;101896.81;;;17.51;100.00
79703;BME280;69172;52.352;5.006;2023-10-09T07:29:21;101903.72;;;17.50;100.00
79703;BME280;69172;52.352;5.006;2023-10-09T07:31:52;101907.50;;;17.55;100.00
79703;BME280;69172;52.352;5.006;2023-10-09T07:34:24;101914.53;;;17.58;100.00
79703;BME280;69172;52.352;5.006;2023-10-09T07:37:27;101903.16;;;17.56;100.00
79703;BME280;69172;52.352;5.006;2023-10-09T07:40:04;101905.97;;;17.60;100.00
79703;BME280;69172;52.352;5.006;2023-10-09T07:42:33;101902.13;;;17.71;100.00
79703;BME280;69172;52.352;5.006;2023-10-09T07:45:03;101903.28;;;17.78;100.00
79703;BME280;69172;52.352;5.006;2023-10-09T07:47:59;101910.28;;;17.79;100.00
79703;BME280;69172;52.352;5.006;2023-10-09T07:50:25;101919.09;;;17.82;100.00
79703;BME280;69172;52.352;5.006;2023-10-09T07:52:57;101912.50;;;17.91;100.00
79703;BME280;69172;52.352;5.006;2023-10-09T07:55:42;101935.41;;;17.99;100.00
79703;BME280;69172;52.352;5.006;2023-10-09T07:58:20;101939.19;;;18.06;100.00
79703;BME280;69172;52.352;5.006;2023-10-09T08:00:55;101938.28;;;18.05;100.00
79703;BME280;69172;52.352;5.006;2023-10-09T08:03:46;101940.22;;;18.09;100.00
79703;BME280;69172;52.352;5.006;2023-10-09T08:06:13;101954.47;;;18.17;100.00
79703;BME280;69172;52.352;5.006;2023-10-09T08:08:57;101959.09;;;18.24;100.00
79703;BME280;69172;52.352;5.006;2023-10-09T08:11:38;101962.00;;;18.32;100.00
79703;BME280;69172;52.352;5.006;2023-10-09T08:14:11;101974.09;;;18.30;100.00
79703;BME280;69172;52.352;5.006;2023-10-09T08:16:55;101975.78;;;18.29;100.00
79703;BME280;69172;52.352;5.006;2023-10-09T08:19:48;101976.81;;;18.33;100.00
79703;BME280;69172;52.352;5.006;2023-10-09T08:22:27;102006.38;;;18.33;99.84
79703;BME280;69172;52.352;5.006;2023-10-09T08:24:56;102008.13;;;18.34;100.00
79703;BME280;69172;52.352;5.006;2023-10-09T08:27:29;101990.66;;;18.32;99.96
79703;BME280;69172;52.352;5.006;2023-10-09T08:30:05;102000.78;;;18.45;98.85
79703;BME280;69172;52.352;5.006;2023-10-09T08:32:46;101995.72;;;18.48;98.38
79703;BME280;69172;52.352;5.006;2023-10-09T08:35:32;101999.94;;;18.46;98.15
79703;BME280;69172;52.352;5.006;2023-10-09T08:38:13;102014.31;;;18.56;97.70
79703;BME280;69172;52.352;5.006;2023-10-09T08:40:41;102025.63;;;18.56;97.56
79703;BME280;69172;52.352;5.006;2023-10-09T08:45:41;102023.97;;;18.58;95.27
79703;BME280;69172;52.352;5.006;2023-10-09T08:48:10;102018.94;;;18.63;94.93
79703;BME280;69172;52.352;5.006;2023-10-09T08:50:41;102020.50;;;18.59;95.37
79703;BME280;69172;52.352;5.006;2023-10-09T08:53:10;102024.22;;;18.64;95.43
79703;BME280;69172;52.352;5.006;2023-10-09T08:55:37;102020.72;;;18.64;95.08
79703;BME280;69172;52.352;5.006;2023-10-09T08:58:03;102015.69;;;18.68;94.96
79703;BME280;69172;52.352;5.006;2023-10-09T09:00:39;102030.81;;;18.77;94.11
79703;BME280;69172;52.352;5.006;2023-10-09T09:03:07;102054.72;;;18.87;93.54
79703;BME280;69172;52.352;5.006;2023-10-09T09:05:33;102054.97;;;18.93;92.92
79703;BME280;69172;52.352;5.006;2023-10-09T09:08:01;102045.44;;;18.94;92.34
79703;BME280;69172;52.352;5.006;2023-10-09T09:10:29;102038.19;;;18.87;92.69
79703;BME280;69172;52.352;5.006;2023-10-09T09:13:03;102030.66;;;18.94;92.72
79703;BME280;69172;52.352;5.006;2023-10-09T09:15:30;102023.88;;;18.98;92.07
79703;BME280;69172;52.352;5.006;2023-10-09T09:18:08;102014.63;;;19.06;91.72
79703;BME280;69172;52.352;5.006;2023-10-09T09:20:36;102034.81;;;19.10;92.32
79703;BME280;69172;52.352;5.006;2023-10-09T09:23:10;102034.38;;;19.22;91.05
79703;BME280;69172;52.352;5.006;2023-10-09T09:25:44;102032.31;;;19.13;91.76
79703;BME280;69172;52.352;5.006;2023-10-09T09:28:11;102020.16;;;19.14;92.23
79703;BME280;69172;52.352;5.006;2023-10-09T09:30:38;102017.66;;;19.17;92.06
79703;BME280;69172;52.352;5.006;2023-10-09T09:36:02;102027.72;;;19.28;92.19
79703;BME280;69172;52.352;5.006;2023-10-09T09:38:31;102026.16;;;19.33;91.52
79703;BME280;69172;52.352;5.006;2023-10-09T09:41:17;102025.13;;;19.30;91.57
79703;BME280;69172;52.352;5.006;2023-10-09T09:43:56;102013.59;;;19.23;91.74
79703;BME280;69172;52.352;5.006;2023-10-09T09:46:31;102019.16;;;19.32;91.75
79703;BME280;69172;52.352;5.006;2023-10-09T09:49:01;102025.78;;;19.24;92.17
79703;BME280;69172;52.352;5.006;2023-10-09T09:51:31;102024.38;;;19.32;91.66
79703;BME280;69172;52.352;5.006;2023-10-09T09:53:57;102021.16;;;19.38;91.78
79703;BME280;69172;52.352;5.006;2023-10-09T09:56:28;102025.78;;;19.45;90.66
79703;BME280;69172;52.352;5.006;2023-10-09T09:58:57;102017.97;;;19.45;91.10
79703;BME280;69172;52.352;5.006;2023-10-09T10:01:29;102015.47;;;19.48;90.41
79703;BME280;69172;52.352;5.006;2023-10-09T10:04:04;102016.81;;;19.60;88.65
79703;BME280;69172;52.352;5.006;2023-10-09T10:06:32;102025.41;;;19.58;89.18
79703;BME280;69172;52.352;5.006;2023-10-09T10:08:59;102037.78;;;19.62;88.32
79703;BME280;69172;52.352;5.006;2023-10-09T10:14:14;102047.72;;;19.72;88.05
79703;BME280;69172;52.352;5.006;2023-10-09T10:17:09;102061.28;;;19.86;87.35
79703;BME280;69172;52.352;5.006;2023-10-09T10:22:42;102059.19;;;19.99;85.57
79703;BME280;69172;52.352;5.006;2023-10-09T10:25:33;102069.22;;;20.11;85.09
79703;BME280;69172;52.352;5.006;2023-10-09T10:31:09;102048.56;;;19.95;86.14
79703;BME280;69172;52.352;5.006;2023-10-09T10:36:25;102054.25;;;20.07;85.95
79703;BME280;69172;52.352;5.006;2023-10-09T10:39:06;102059.41;;;20.05;85.17
79703;BME280;69172;52.352;5.006;2023-10-09T10:41:53;102054.75;;;19.97;86.07
79703;BME280;69172;52.352;5.006;2023-10-09T10:44:33;102058.06;;;19.93;86.05
79703;BME280;69172;52.352;5.006;2023-10-09T10:47:06;102057.75;;;19.84;85.78
79703;BME280;69172;52.352;5.006;2023-10-09T10:49:47;102045.78;;;19.90;86.48
79703;BME280;69172;52.352;5.006;2023-10-09T10:52:22;102040.50;;;20.12;84.94
79703;BME280;69172;52.352;5.006;2023-10-09T10:55:14;102048.91;;;20.28;83.04
79703;BME280;69172;52.352;5.006;2023-10-09T10:58:16;102050.66;;;20.27;83.36
79703;BME280;69172;52.352;5.006;2023-10-09T11:00:52;102048.13;;;20.30;83.14
79703;BME280;69172;52.352;5.006;2023-10-09T11:03:25;102037.66;;;20.29;82.91
79703;BME280;69172;52.352;5.006;2023-10-09T11:06:31;102054.47;;;20.37;82.81
79703;BME280;69172;52.352;5.006;2023-10-09T11:09:04;102064.94;;;20.37;81.73
79703;BME280;69172;52.352;5.006;2023-10-09T11:11:51;102055.91;;;20.27;82.56
79703;BME280;69172;52.352;5.006;2023-10-09T11:14:21;102063.28;;;20.16;83.18
79703;BME280;69172;52.352;5.006;2023-10-09T11:16:51;102064.41;;;20.23;82.91
79703;BME280;69172;52.352;5.006;2023-10-09T11:19:24;102046.94;;;20.22;83.62
79703;BME280;69172;52.352;5.006;2023-10-09T11:21:52;102055.63;;;20.21;83.16
79703;BME280;69172;52.352;5.006;2023-10-09T11:24:26;102047.97;;;20.26;83.27
79703;BME280;69172;52.352;5.006;2023-10-09T11:26:53;102047.84;;;20.23;83.22
79703;BME280;69172;52.352;5.006;2023-10-09T11:29:24;102054.78;;;20.22;83.50
79703;BME280;69172;52.352;5.006;2023-10-09T11:32:06;102057.34;;;20.20;83.07
79703;BME280;69172;52.352;5.006;2023-10-09T11:34:34;102057.13;;;20.14;83.25
79703;BME280;69172;52.352;5.006;2023-10-09T11:37:02;102063.88;;;20.08;83.66
79703;BME280;69172;52.352;5.006;2023-10-09T11:39:34;102062.59;;;19.97;84.51
79703;BME280;69172;52.352;5.006;2023-10-09T11:42:09;102048.91;;;20.04;84.27
79703;BME280;69172;52.352;5.006;2023-10-09T11:44:42;102044.41;;;20.00;84.58
79703;BME280;69172;52.352;5.006;2023-10-09T11:47:11;102034.63;;;20.18;83.95
79703;BME280;69172;52.352;5.006;2023-10-09T11:49:55;102034.47;;;20.13;83.67
79703;BME280;69172;52.352;5.006;2023-10-09T11:52:58;102033.69;;;20.16;83.63
79703;BME280;69172;52.352;5.006;2023-10-09T11:55:44;102035.78;;;20.25;82.51
79703;BME280;69172;52.352;5.006;2023-10-09T11:58:17;102024.00;;;20.37;82.25
79703;BME280;69172;52.352;5.006;2023-10-09T12:00:52;102030.56;;;20.25;83.04
79703;BME280;69172;52.352;5.006;2023-10-09T12:03:24;102035.97;;;20.31;82.50
79703;BME280;69172;52.352;5.006;2023-10-09T12:05:54;102039.78;;;20.16;83.74
79703;BME280;69172;52.352;5.006;2023-10-09T12:08:24;102044.31;;;19.97;84.45
79703;BME280;69172;52.352;5.006;2023-10-09T12:10:54;102047.50;;;19.90;85.43
79703;BME280;69172;52.352;5.006;2023-10-09T12:13:24;102042.22;;;19.88;85.30
79703;BME280;69172;52.352;5.006;2023-10-09T12:15:50;102055.94;;;19.83;85.83
79703;BME280;69172;52.352;5.006;2023-10-09T12:18:17;102051.69;;;19.63;86.23
79703;BME280;69172;52.352;5.006;2023-10-09T12:20:44;102037.53;;;19.56;86.01
79703;BME280;69172;52.352;5.006;2023-10-09T12:23:22;102045.00;;;19.47;85.98
79703;BME280;69172;52.352;5.006;2023-10-09T12:25:49;102050.56;;;19.35;86.92
79703;BME280;69172;52.352;5.006;2023-10-09T12:28:18;102058.22;;;19.31;87.25
79703;BME280;69172;52.352;5.006;2023-10-09T12:30:47;102063.28;;;19.26;87.71
79703;BME280;69172;52.352;5.006;2023-10-09T12:33:18;102055.38;;;19.25;88.47
79703;BME280;69172;52.352;5.006;2023-10-09T12:35:54;102053.28;;;19.37;87.63
79703;BME280;69172;52.352;5.006;2023-10-09T12:38:32;102053.16;;;19.34;87.99
79703;BME280;69172;52.352;5.006;2023-10-09T12:41:05;102059.47;;;19.39;88.10
79703;BME280;69172;52.352;5.006;2023-10-09T12:43:44;102070.34;;;19.29;89.04
79703;BME280;69172;52.352;5.006;2023-10-09T12:46:10;102060.56;;;19.23;88.75
79703;BME280;69172;52.352;5.006;2023-10-09T12:48:39;102057.09;;;19.24;87.81
79703;BME280;69172;52.352;5.006;2023-10-09T12:51:11;102062.94;;;19.19;88.06
79703;BME280;69172;52.352;5.006;2023-10-09T12:53:43;102063.50;;;19.10;86.96
79703;BME280;69172;52.352;5.006;2023-10-09T12:56:08;102052.16;;;19.10;87.40
79703;BME280;69172;52.352;5.006;2023-10-09T12:58:34;102053.28;;;19.16;86.87
79703;BME280;69172;52.352;5.006;2023-10-09T13:01:04;102054.38;;;19.21;86.90
79703;BME280;69172;52.352;5.006;2023-10-09T13:03:37;102078.38;;;19.13;86.07
79703;BME280;69172;52.352;5.006;2023-10-09T13:06:06;102071.06;;;19.04;86.91
79703;BME280;69172;52.352;5.006;2023-10-09T13:08:37;102062.16;;;18.99;87.44
79703;BME280;69172;52.352;5.006;2023-10-09T13:11:07;102060.56;;;19.02;87.03
79703;BME280;69172;52.352;5.006;2023-10-09T13:13:37;102063.75;;;18.95;87.71
79703;BME280;69172;52.352;5.006;2023-10-09T13:16:10;102073.16;;;18.92;87.43
79703;BME280;69172;52.352;5.006;2023-10-09T13:18:41;102072.28;;;18.91;87.41
79703;BME280;69172;52.352;5.006;2023-10-09T13:21:36;102058.72;;;18.79;88.71
79703;BME280;69172;52.352;5.006;2023-10-09T13:24:03;102063.91;;;18.78;88.95
79703;BME280;69172;52.352;5.006;2023-10-09T13:26:29;102058.00;;;18.83;88.87
79703;BME280;69172;52.352;5.006;2023-10-09T13:28:57;102057.97;;;18.82;88.82
79703;BME280;69172;52.352;5.006;2023-10-09T13:31:24;102060.00;;;18.89;88.83
79703;BME280;69172;52.352;5.006;2023-10-09T13:33:54;102058.66;;;18.98;88.34
79703;BME280;69172;52.352;5.006;2023-10-09T13:36:24;102049.06;;;18.97;88.09